Time;durP1;ratioP1;P1;durP2;ratioP2;P2;SDS_P1;SDS_P2;PMS_P1;PMS_P2;Temp;Humidity;BMP_temperature;BMP_pressure;BME280_temperature;BME280_humidity;BME280_pressure;Samples;Min_cycle;Max_cycle;Signal;HPM_P1;HPM_P2
2022/03/08 00:00:53;;;;;;;44.00;40.20;;;-0.60;64.90;;;;;;5092193;28;20578;-70
2022/03/08 00:03:21;;;;;;;42.25;38.83;;;-0.60;67.10;;;;;;5092408;28;20197;-71
2022/03/08 00:05:48;;;;;;;42.17;38.40;;;-0.60;65.60;;;;;;5092441;28;20247;-70
2022/03/08 00:08:15;;;;;;;42.45;38.88;;;-0.60;65.30;;;;;;5092374;28;20203;-71
2022/03/08 00:10:42;;;;;;;41.60;38.13;;;-0.60;65.30;;;;;;5092331;28;20200;-71
2022/03/08 00:13:09;;;;;;;43.85;39.78;;;-0.70;65.60;;;;;;5092360;28;20224;-71
2022/03/08 00:15:36;;;;;;;44.50;40.22;;;-0.80;65.90;;;;;;5092236;28;20201;-71
2022/03/08 00:18:04;;;;;;;41.15;37.85;;;-0.70;67.50;;;;;;5092276;28;20237;-71
2022/03/08 00:20:32;;;;;;;44.05;40.20;;;-0.70;66.80;;;;;;5091928;28;20221;-71
2022/03/08 00:22:59;;;;;;;41.17;37.55;;;-0.70;66.20;;;;;;5092564;28;20217;-70
2022/03/08 00:25:27;;;;;;;44.00;40.17;;;-0.80;66.20;;;;;;5092180;28;20561;-70
2022/03/08 00:27:54;;;;;;;42.88;39.03;;;-0.80;66.40;;;;;;5092289;28;20661;-70
2022/03/08 00:30:23;;;;;;;42.70;38.88;;;-0.90;66.70;;;;;;5091980;28;20232;-71
2022/03/08 00:32:52;;;;;;;44.35;40.60;;;-0.90;66.80;;;;;;5092016;28;20221;-70
2022/03/08 00:35:19;;;;;;;42.97;39.15;;;-0.90;66.70;;;;;;5092139;28;20753;-70
2022/03/08 00:37:49;;;;;;;44.97;40.97;;;-0.90;66.60;;;;;;5092173;28;20287;-70
2022/03/08 00:40:18;;;;;;;43.70;40.08;;;-0.90;66.80;;;;;;5092080;28;20690;-71
2022/03/08 00:42:45;;;;;;;42.05;38.55;;;-1.00;67.00;;;;;;5095838;28;20713;-71
2022/03/08 00:45:13;;;;;;;41.38;37.75;;;-1.00;67.00;;;;;;5095708;28;20213;-71
2022/03/08 00:47:41;;;;;;;42.53;38.63;;;-1.00;66.80;;;;;;5095492;28;20213;-71
2022/03/08 00:50:11;;;;;;;43.38;39.80;;;-1.00;66.90;;;;;;5095630;28;20236;-71
2022/03/08 00:52:38;;;;;;;41.90;38.35;;;-1.00;67.10;;;;;;5095771;28;20320;-70
2022/03/08 00:55:09;;;;;;;41.75;38.20;;;-1.10;67.30;;;;;;5095821;28;20211;-70
2022/03/08 00:57:36;;;;;;;41.83;38.33;;;-1.10;67.50;;;;;;5095697;28;20196;-70
2022/03/08 01:00:05;;;;;;;41.67;37.97;;;-1.20;67.80;;;;;;5095089;28;20626;-70
2022/03/08 01:02:32;;;;;;;42.63;39.13;;;-1.20;68.00;;;;;;5095449;28;20260;-70
2022/03/08 01:04:59;;;;;;;42.22;38.70;;;-1.20;68.10;;;;;;5095497;28;20196;-70
2022/03/08 01:07:26;;;;;;;41.58;37.95;;;-1.20;68.10;;;;;;5095427;28;20283;-70
2022/03/08 01:09:53;;;;;;;40.35;37.15;;;-1.20;67.80;;;;;;5095161;28;20562;-70
2022/03/08 01:12:21;;;;;;;43.40;39.88;;;-1.20;67.80;;;;;;5095401;28;20216;-71
2022/03/08 01:14:48;;;;;;;40.70;37.20;;;-1.20;67.70;;;;;;5095173;28;20684;-71
2022/03/08 01:17:15;;;;;;;41.30;37.72;;;-1.20;67.80;;;;;;5095224;28;20257;-70
2022/03/08 01:19:41;;;;;;;43.55;40.00;;;-1.20;67.70;;;;;;5095147;28;20216;-70
2022/03/08 01:22:08;;;;;;;41.67;37.53;;;-1.20;67.80;;;;;;5095163;28;20301;-71
2022/03/08 01:24:35;;;;;;;42.50;39.00;;;-1.30;68.20;;;;;;5095006;28;20234;-71
2022/03/08 01:27:02;;;;;;;40.50;37.10;;;-1.40;68.80;;;;;;5095005;28;20198;-70
2022/03/08 01:29:31;;;;;;;41.50;37.90;;;-1.40;69.00;;;;;;5094629;28;20196;-71
2022/03/08 01:31:57;;;;;;;43.05;39.15;;;-1.40;69.00;;;;;;5094959;28;20212;-71
2022/03/08 01:34:24;;;;;;;44.22;40.40;;;-1.40;68.90;;;;;;5094972;28;20200;-70
2022/03/08 01:36:51;;;;;;;43.08;39.50;;;-1.50;69.10;;;;;;5094819;28;20708;-71
2022/03/08 01:39:18;;;;;;;42.28;38.47;;;-1.60;69.40;;;;;;5094500;28;20703;-70
2022/03/08 01:41:45;;;;;;;43.88;40.08;;;-1.60;69.40;;;;;;5094524;28;20730;-71
2022/03/08 01:44:12;;;;;;;44.67;40.95;;;-1.60;69.30;;;;;;5094846;28;20707;-71
2022/03/08 01:46:40;;;;;;;43.25;39.53;;;-1.60;69.30;;;;;;5094520;28;20193;-71
2022/03/08 01:49:08;;;;;;;43.70;39.97;;;-1.50;69.10;;;;;;5094651;28;20246;-71
2022/03/08 01:51:36;;;;;;;43.60;39.63;;;-1.50;69.10;;;;;;5094000;28;20252;-71
2022/03/08 01:54:03;;;;;;;44.05;40.13;;;-1.60;69.40;;;;;;5093976;28;20197;-71
2022/03/08 01:56:30;;;;;;;43.22;39.42;;;-1.60;69.50;;;;;;5094437;28;20669;-71
2022/03/08 01:58:57;;;;;;;42.85;39.15;;;-1.70;69.70;;;;;;5094354;28;20223;-70
2022/03/08 02:01:24;;;;;;;42.03;38.63;;;-1.70;70.30;;;;;;5094224;28;20219;-70
2022/03/08 02:03:53;;;;;;;42.88;39.38;;;-1.70;70.10;;;;;;5094389;28;20197;-70
2022/03/08 02:06:20;;;;;;;43.72;40.03;;;-1.70;70.30;;;;;;5094194;28;20193;-71
2022/03/08 02:08:47;;;;;;;42.42;38.72;;;-1.60;70.00;;;;;;5094333;28;20192;-71
2022/03/08 02:11:14;;;;;;;42.83;39.28;;;-1.60;69.80;;;;;;5093907;28;20580;-70
2022/03/08 02:13:41;;;;;;;44.40;40.65;;;-1.70;70.10;;;;;;5094382;28;20195;-71
2022/03/08 02:16:08;;;;;;;44.35;40.25;;;-1.70;70.70;;;;;;5093987;28;20307;-71
2022/03/08 02:18:35;;;;;;;43.55;39.65;;;-1.80;75.50;;;;;;5093972;28;20200;-70
2022/03/08 02:21:06;;;;;;;44.88;40.78;;;-1.80;76.50;;;;;;5093631;28;20249;-71
2022/03/08 02:23:33;;;;;;;42.72;39.15;;;-1.80;74.60;;;;;;5094183;28;20192;-71
2022/03/08 02:26:01;;;;;;;44.05;40.15;;;-1.90;73.40;;;;;;5093833;28;20201;-71
2022/03/08 02:28:29;;;;;;;44.72;40.70;;;-1.90;72.40;;;;;;5093783;28;20212;-70
2022/03/08 02:30:56;;;;;;;42.70;39.20;;;-1.90;71.80;;;;;;5093526;28;20192;-70
2022/03/08 02:33:23;;;;;;;45.25;41.00;;;-1.90;71.60;;;;;;5093735;28;20211;-71
2022/03/08 02:35:50;;;;;;;42.95;39.25;;;-1.90;71.30;;;;;;5093553;28;20195;-71
2022/03/08 02:38:18;;;;;;;42.38;38.67;;;-1.90;71.30;;;;;;5093646;28;20196;-70
2022/03/08 02:40:45;;;;;;;42.20;38.63;;;-1.90;71.30;;;;;;5093106;28;20792;-71
2022/03/08 02:43:13;;;;;;;42.83;39.22;;;-1.90;71.60;;;;;;5093585;28;20223;-71
2022/03/08 02:45:41;;;;;;;41.67;38.17;;;-1.90;71.50;;;;;;5093364;28;20291;-70
2022/03/08 02:48:09;;;;;;;41.95;38.45;;;-2.00;71.70;;;;;;5093313;28;20300;-70
2022/03/08 02:50:36;;;;;;;43.13;39.42;;;-1.90;71.70;;;;;;5093175;28;20213;-71
2022/03/08 02:53:04;;;;;;;45.35;41.25;;;-2.00;71.60;;;;;;5093548;28;20302;-70
2022/03/08 02:55:33;;;;;;;43.90;40.20;;;-2.00;71.70;;;;;;5093341;28;20198;-71
2022/03/08 02:58:01;;;;;;;45.28;41.33;;;-2.00;71.80;;;;;;5093246;28;20200;-71
2022/03/08 03:00:30;;;;;;;44.40;40.60;;;-2.10;72.00;;;;;;5092852;28;20228;-71
2022/03/08 03:02:57;;;;;;;45.05;41.22;;;-2.10;72.40;;;;;;5093333;28;20768;-70
2022/03/08 03:05:24;;;;;;;45.40;41.75;;;-2.10;72.70;;;;;;5093108;28;20199;-71
2022/03/08 03:07:52;;;;;;;44.95;41.05;;;-2.20;72.80;;;;;;5093080;28;20253;-71
2022/03/08 03:10:23;;;;;;;43.60;39.80;;;-2.20;72.90;;;;;;5092965;28;20725;-71
2022/03/08 03:12:53;;;;;;;42.50;38.83;;;-2.20;72.90;;;;;;5093062;28;20562;-70
2022/03/08 03:15:21;;;;;;;44.25;40.42;;;-2.10;72.50;;;;;;5092914;28;20287;-70
2022/03/08 03:17:49;;;;;;;43.67;39.97;;;-2.20;72.40;;;;;;5093025;28;20672;-71
2022/03/08 03:20:18;;;;;;;44.03;40.33;;;-2.10;72.50;;;;;;5092570;28;20307;-71
2022/03/08 03:22:46;;;;;;;43.00;39.30;;;-2.10;72.40;;;;;;5092765;28;20729;-70
2022/03/08 03:25:14;;;;;;;44.08;40.22;;;-2.20;72.30;;;;;;5092723;28;20207;-71
2022/03/08 03:27:42;;;;;;;43.42;39.72;;;-2.20;72.60;;;;;;5092735;28;20191;-70
2022/03/08 03:30:13;;;;;;;42.45;39.08;;;-2.30;72.70;;;;;;5092551;28;20287;-71
2022/03/08 03:32:40;;;;;;;42.15;38.72;;;-2.30;72.70;;;;;;5093176;28;20215;-70
2022/03/08 03:35:09;;;;;;;42.53;39.05;;;-2.30;72.80;;;;;;5092803;28;20283;-70
2022/03/08 03:37:36;;;;;;;44.38;40.47;;;-2.30;72.90;;;;;;5092744;28;20200;-70
2022/03/08 03:40:04;;;;;;;41.97;38.13;;;-2.30;72.70;;;;;;5092397;28;20266;-70
2022/03/08 03:42:31;;;;;;;41.97;38.47;;;-2.30;72.70;;;;;;5092564;28;20238;-70
2022/03/08 03:44:57;;;;;;;43.92;40.22;;;-2.20;72.40;;;;;;5092688;28;20199;-70
2022/03/08 03:47:26;;;;;;;44.72;40.88;;;-2.30;72.60;;;;;;5092696;28;20207;-70
2022/03/08 03:49:53;;;;;;;43.90;39.92;;;-2.30;72.70;;;;;;5092420;28;20201;-70
2022/03/08 03:52:20;;;;;;;45.17;41.20;;;-2.50;73.30;;;;;;5092710;28;20219;-70
2022/03/08 03:54:46;;;;;;;42.20;38.45;;;-2.50;73.30;;;;;;5092562;28;20751;-70
2022/03/08 03:57:13;;;;;;;43.17;39.53;;;-2.50;73.30;;;;;;5092537;28;20652;-70
2022/03/08 03:59:41;;;;;;;43.25;39.65;;;-2.50;73.40;;;;;;5092225;28;20204;-70
2022/03/08 04:02:09;;;;;;;43.30;39.60;;;-2.50;73.20;;;;;;5092528;28;20249;-70
2022/03/08 04:04:37;;;;;;;43.28;39.65;;;-2.50;73.00;;;;;;5092419;28;20282;-71
2022/03/08 04:07:04;;;;;;;45.42;41.50;;;-2.50;72.80;;;;;;5092453;28;20282;-70
2022/03/08 04:09:31;;;;;;;45.20;41.40;;;-2.40;72.60;;;;;;5092248;28;20246;-70
2022/03/08 04:11:58;;;;;;;42.20;38.40;;;-2.40;72.60;;;;;;5092332;28;20218;-70
2022/03/08 04:14:26;;;;;;;45.75;41.75;;;-2.50;73.10;;;;;;5092293;28;20205;-70
2022/03/08 04:16:53;;;;;;;46.20;42.30;;;-2.50;73.60;;;;;;5095501;28;20200;-70
2022/03/08 04:19:20;;;;;;;46.55;42.45;;;-2.60;74.20;;;;;;5096265;28;20200;-71
2022/03/08 04:21:49;;;;;;;47.38;43.28;;;-2.50;74.20;;;;;;5096174;28;20318;-70
2022/03/08 04:24:16;;;;;;;46.25;42.33;;;-2.40;74.00;;;;;;5096207;28;20238;-70
2022/03/08 04:26:43;;;;;;;124.55;49.42;;;-2.40;73.80;;;;;;5096187;28;20744;-70
2022/03/08 04:29:10;;;;;;;44.78;40.85;;;-2.50;75.30;;;;;;5096113;28;20224;-70
2022/03/08 04:31:37;;;;;;;47.33;43.33;;;-2.60;76.20;;;;;;5096168;28;20227;-71
2022/03/08 04:34:04;;;;;;;58.05;42.95;;;-2.60;77.90;;;;;;5096081;28;20565;-70
2022/03/08 04:36:31;;;;;;;46.53;42.53;;;-2.60;83.40;;;;;;5095903;28;20221;-70
2022/03/08 04:38:59;;;;;;;46.13;42.22;;;-2.60;79.40;;;;;;5095930;28;20198;-70
2022/03/08 04:41:26;;;;;;;43.00;39.63;;;-2.60;77.10;;;;;;5095492;28;20216;-70
2022/03/08 04:43:53;;;;;;;45.85;41.90;;;-2.60;76.50;;;;;;5095955;28;20196;-70
2022/03/08 04:46:20;;;;;;;45.33;41.70;;;-2.60;75.90;;;;;;5095746;28;20196;-70
2022/03/08 04:48:46;;;;;;;43.95;40.35;;;-2.60;75.60;;;;;;5095663;28;20199;-70
2022/03/08 04:51:13;;;;;;;43.78;40.38;;;-2.60;75.30;;;;;;5095431;28;20298;-71
2022/03/08 04:53:40;;;;;;;46.30;42.30;;;-2.60;75.10;;;;;;5095841;28;20198;-70
2022/03/08 04:56:09;;;;;;;46.05;42.17;;;-2.50;75.10;;;;;;5095561;28;20195;-70
2022/03/08 04:58:35;;;;;;;44.30;40.53;;;-2.60;75.40;;;;;;5095569;28;20287;-70
2022/03/08 05:01:02;;;;;;;43.78;40.10;;;-2.50;75.40;;;;;;5095103;28;20223;-70
2022/03/08 05:03:29;;;;;;;46.13;42.38;;;-2.50;75.10;;;;;;5095366;28;20202;-70
2022/03/08 05:05:56;;;;;;;42.78;38.95;;;-2.50;74.60;;;;;;5095595;28;20276;-70
2022/03/08 05:08:23;;;;;;;46.53;42.40;;;-2.60;74.70;;;;;;5095417;28;20210;-70
2022/03/08 05:10:50;;;;;;;42.83;39.45;;;-2.60;75.10;;;;;;5095301;28;20191;-70
2022/03/08 05:13:19;;;;;;;44.47;40.75;;;-2.70;75.00;;;;;;5095374;28;20202;-70
2022/03/08 05:15:48;;;;;;;42.75;39.13;;;-2.60;75.00;;;;;;5095166;28;20203;-70
2022/03/08 05:18:15;;;;;;;46.80;42.70;;;-2.70;74.60;;;;;;5095145;28;20199;-70
2022/03/08 05:20:42;;;;;;;44.25;40.53;;;-2.60;74.50;;;;;;5094988;28;20215;-70
2022/03/08 05:23:09;;;;;;;45.38;40.97;;;-2.60;74.70;;;;;;5095035;28;20709;-71
2022/03/08 05:25:36;;;;;;;46.38;42.42;;;-2.70;79.10;;;;;;5095065;28;20256;-70
2022/03/08 05:28:04;;;;;;;43.53;39.85;;;-2.70;78.70;;;;;;5094942;28;20210;-70
2022/03/08 05:30:32;;;;;;;43.08;39.58;;;-2.70;77.40;;;;;;5094685;28;20188;-71
2022/03/08 05:32:59;;;;;;;43.75;39.65;;;-2.70;76.50;;;;;;5094919;28;20215;-70
2022/03/08 05:35:26;;;;;;;45.65;41.65;;;-2.80;75.70;;;;;;5094955;28;20321;-70
2022/03/08 05:37:53;;;;;;;44.40;40.58;;;-2.70;75.60;;;;;;5094794;28;20196;-70
2022/03/08 05:40:20;;;;;;;175.32;55.30;;;-2.70;77.80;;;;;;5094368;28;20290;-70
2022/03/08 05:42:47;;;;;;;45.33;41.17;;;-2.70;79.70;;;;;;5094574;28;20723;-71
2022/03/08 05:45:15;;;;;;;45.35;41.35;;;-2.70;82.80;;;;;;5094617;28;20197;-71
2022/03/08 05:47:44;;;;;;;47.38;43.70;;;-2.80;79.60;;;;;;5094393;28;20201;-70
2022/03/08 05:50:12;;;;;;;43.83;40.22;;;-2.80;78.80;;;;;;5094433;28;20196;-70
2022/03/08 05:52:39;;;;;;;43.05;39.35;;;-2.70;77.40;;;;;;5094550;28;20303;-70
2022/03/08 05:55:07;;;;;;;44.83;40.65;;;-2.70;76.60;;;;;;5094557;28;20540;-71
2022/03/08 05:57:34;;;;;;;44.85;41.00;;;-2.70;75.90;;;;;;5094425;28;20203;-70
2022/03/08 06:00:01;;;;;;;43.65;39.95;;;-2.70;75.80;;;;;;5094078;28;20226;-70
2022/03/08 06:02:27;;;;;;;46.13;42.20;;;-2.70;75.90;;;;;;5094241;28;20266;-71
2022/03/08 06:04:56;;;;;;;43.83;39.83;;;-2.70;75.90;;;;;;5094186;28;20231;-70
2022/03/08 06:07:23;;;;;;;43.95;40.05;;;-2.70;76.00;;;;;;5094332;28;20200;-70
2022/03/08 06:09:51;;;;;;;47.95;43.78;;;-2.70;76.20;;;;;;5094048;28;20223;-70
2022/03/08 06:12:17;;;;;;;43.63;39.92;;;-2.60;75.80;;;;;;5094232;28;20250;-70
2022/03/08 06:14:44;;;;;;;40.75;37.35;;;-2.70;75.80;;;;;;5094093;28;20199;-71
2022/03/08 06:17:11;;;;;;;43.53;39.92;;;-2.50;75.90;;;;;;5094021;28;20201;-71
2022/03/08 06:19:38;;;;;;;41.92;38.50;;;-2.50;75.50;;;;;;5093881;28;20195;-70
2022/03/08 06:22:07;;;;;;;42.17;38.33;;;-2.50;75.40;;;;;;5093852;28;20232;-70
2022/03/08 06:24:34;;;;;;;43.58;40.00;;;-2.40;75.30;;;;;;5093747;28;20657;-71
2022/03/08 06:27:01;;;;;;;43.60;40.10;;;-2.40;74.90;;;;;;5093692;28;20279;-70
2022/03/08 06:29:27;;;;;;;43.08;39.30;;;-2.30;74.70;;;;;;5093768;28;20231;-70
2022/03/08 06:31:54;;;;;;;42.10;38.25;;;-2.20;74.00;;;;;;5093834;28;20211;-70
2022/03/08 06:34:22;;;;;;;44.97;41.38;;;-2.30;73.70;;;;;;5093802;28;20206;-71
2022/03/08 06:36:48;;;;;;;40.50;37.00;;;-2.30;73.80;;;;;;5093721;28;20197;-70
2022/03/08 06:39:17;;;;;;;38.85;35.47;;;-2.20;73.60;;;;;;5092910;28;20283;-70
2022/03/08 06:41:44;;;;;;;41.30;37.83;;;-2.20;73.80;;;;;;5093306;28;20230;-70
2022/03/08 06:44:11;;;;;;;41.20;37.97;;;-2.10;73.80;;;;;;5093586;28;20295;-70
2022/03/08 06:46:44;;;;;;;42.33;39.03;;;-2.00;74.00;;;;;;5093509;28;20201;-70
2022/03/08 06:49:11;;;;;;;43.38;39.97;;;-2.00;73.60;;;;;;5093393;28;20244;-70
2022/03/08 06:51:38;;;;;;;40.95;37.58;;;-1.90;73.50;;;;;;5093489;28;20209;-70
2022/03/08 06:54:05;;;;;;;40.50;37.10;;;-1.70;73.30;;;;;;5093403;28;20527;-70
2022/03/08 06:56:34;;;;;;;40.00;36.90;;;-1.60;72.70;;;;;;5093292;28;20205;-70
2022/03/08 06:59:01;;;;;;;39.00;35.38;;;-1.50;72.60;;;;;;5093206;28;20200;-70
2022/03/08 07:01:29;;;;;;;41.47;37.67;;;-1.40;72.40;;;;;;5092871;28;20223;-70
2022/03/08 07:03:56;;;;;;;41.08;37.55;;;-1.40;72.40;;;;;;5093198;28;20299;-70
2022/03/08 07:06:23;;;;;;;42.22;38.25;;;-1.40;72.50;;;;;;5093193;28;20211;-71
2022/03/08 07:08:50;;;;;;;39.75;36.33;;;-1.40;72.60;;;;;;5093043;28;20612;-70
2022/03/08 07:11:17;;;;;;;40.88;37.58;;;-1.30;72.40;;;;;;5092676;28;20242;-70
2022/03/08 07:13:45;;;;;;;39.20;36.10;;;-1.20;72.00;;;;;;5093228;28;20296;-70
2022/03/08 07:16:13;;;;;;;41.33;37.80;;;-1.10;71.70;;;;;;5092937;28;20284;-71
2022/03/08 07:18:40;;;;;;;40.40;36.95;;;-1.00;70.90;;;;;;5092924;28;20621;-70
2022/03/08 07:21:06;;;;;;;38.58;35.40;;;-0.90;70.50;;;;;;5092548;28;20220;-70
2022/03/08 07:23:34;;;;;;;38.25;34.75;;;-0.80;70.30;;;;;;5092846;28;20196;-71
2022/03/08 07:26:01;;;;;;;39.05;35.85;;;-0.70;70.00;;;;;;5092915;28;20202;-71
2022/03/08 07:28:28;;;;;;;36.53;33.63;;;-0.60;70.00;;;;;;5092951;28;20293;-71
2022/03/08 07:30:56;;;;;;;38.97;36.03;;;-0.50;69.80;;;;;;5092609;28;20595;-70
2022/03/08 07:33:23;;;;;;;38.92;35.05;;;-0.40;69.30;;;;;;5092719;28;20208;-71
2022/03/08 07:35:50;;;;;;;37.80;34.80;;;-0.30;68.60;;;;;;5092772;28;20283;-71
2022/03/08 07:38:17;;;;;;;36.33;33.38;;;-0.20;67.30;;;;;;5092771;28;20201;-71
2022/03/08 07:40:43;;;;;;;38.05;35.08;;;-0.20;66.40;;;;;;5092437;28;20570;-71
2022/03/08 07:43:10;;;;;;;36.78;33.80;;;0.00;69.70;;;;;;5092457;28;20225;-71
2022/03/08 07:45:37;;;;;;;36.05;33.28;;;0.20;67.90;;;;;;5092365;28;20655;-71
2022/03/08 07:48:09;;;;;;;37.13;34.53;;;0.30;66.80;;;;;;5092655;28;20284;-70
2022/03/08 07:50:36;;;;;;;36.55;33.88;;;0.50;65.70;;;;;;5091603;28;20726;-71
2022/03/08 07:53:04;;;;;;;33.80;31.25;;;0.70;64.70;;;;;;5092631;28;20216;-71
2022/03/08 07:55:32;;;;;;;34.30;31.70;;;1.00;63.10;;;;;;5092553;28;20208;-71
2022/03/08 07:58:00;;;;;;;36.05;33.35;;;1.30;62.40;;;;;;5092545;28;20627;-71
2022/03/08 08:00:27;;;;;;;34.42;31.40;;;1.40;61.70;;;;;;5092413;28;20307;-71
2022/03/08 08:02:54;;;;;;;33.63;31.00;;;1.50;62.80;;;;;;5092342;28;20221;-71
2022/03/08 08:05:23;;;;;;;32.38;30.13;;;1.80;61.40;;;;;;5092626;28;20204;-71
2022/03/08 08:07:50;;;;;;;32.38;30.02;;;2.00;60.30;;;;;;5092495;28;20286;-71
2022/03/08 08:10:17;;;;;;;30.83;28.83;;;2.10;59.60;;;;;;5092184;28;20636;-70
2022/03/08 08:12:45;;;;;;;33.90;31.20;;;2.20;61.60;;;;;;5092386;28;20221;-71
2022/03/08 08:15:12;;;;;;;32.03;29.85;;;2.30;59.30;;;;;;5092271;28;20294;-71
2022/03/08 08:17:39;;;;;;;30.70;28.60;;;2.40;58.60;;;;;;5092364;28;20202;-71
2022/03/08 08:20:08;;;;;;;30.35;28.42;;;2.70;58.00;;;;;;5092250;28;20682;-71
2022/03/08 08:22:36;;;;;;;32.38;29.88;;;2.80;57.80;;;;;;5092309;28;20229;-71
2022/03/08 08:25:04;;;;;;;32.60;30.20;;;2.90;57.40;;;;;;5092373;28;20209;-71
2022/03/08 08:27:31;;;;;;;30.48;28.38;;;3.00;57.40;;;;;;5092035;28;20198;-71
2022/03/08 08:29:57;;;;;;;33.22;30.95;;;3.00;56.50;;;;;;5091961;28;20221;-71
2022/03/08 08:32:24;;;;;;;33.28;31.08;;;3.10;56.20;;;;;;5092201;28;20222;-71
2022/03/08 08:34:51;;;;;;;31.90;29.52;;;3.00;56.10;;;;;;5092184;28;20198;-71
2022/03/08 08:37:18;;;;;;;31.10;29.00;;;3.20;56.20;;;;;;5092244;28;20661;-71
2022/03/08 08:39:47;;;;;;;31.88;29.67;;;3.30;56.20;;;;;;5091886;28;20285;-71
2022/03/08 08:42:13;;;;;;;30.52;28.33;;;3.50;55.60;;;;;;5091775;28;20691;-71
2022/03/08 08:44:41;;;;;;;32.65;30.52;;;3.50;55.40;;;;;;5092174;28;20194;-71
2022/03/08 08:47:08;;;;;;;31.88;29.58;;;3.60;55.30;;;;;;5091886;28;20632;-71
2022/03/08 08:49:35;;;;;;;31.73;29.52;;;3.50;54.90;;;;;;5091803;28;20288;-71
2022/03/08 08:52:02;;;;;;;32.25;30.05;;;3.70;55.20;;;;;;5091936;28;20219;-71
2022/03/08 08:54:28;;;;;;;30.02;27.92;;;3.80;55.00;;;;;;5092018;28;20231;-71
2022/03/08 08:56:57;;;;;;;30.42;28.15;;;4.00;54.10;;;;;;5091991;28;20200;-71
2022/03/08 08:59:24;;;;;;;31.95;29.80;;;4.00;54.10;;;;;;5091655;28;20207;-71
2022/03/08 09:01:51;;;;;;;30.88;28.67;;;3.90;53.70;;;;;;5093036;28;20229;-71
2022/03/08 09:04:21;;;;;;;29.25;27.23;;;4.00;53.80;;;;;;5095750;28;20534;-71
2022/03/08 09:06:48;;;;;;;30.10;27.70;;;4.30;53.50;;;;;;5095754;28;20220;-71
2022/03/08 09:09:15;;;;;;;30.95;28.77;;;4.40;53.10;;;;;;5095204;28;20577;-71
2022/03/08 09:11:42;;;;;;;32.38;30.23;;;4.50;52.70;;;;;;5095361;28;20209;-71
2022/03/08 09:14:10;;;;;;;29.95;27.95;;;4.60;52.70;;;;;;5095286;28;20288;-71
2022/03/08 09:16:38;;;;;;;29.40;27.50;;;4.50;52.20;;;;;;5095371;28;20209;-71
2022/03/08 09:19:05;;;;;;;30.45;28.40;;;4.40;52.50;;;;;;5095218;28;20291;-71
2022/03/08 09:21:32;;;;;;;30.20;28.00;;;4.60;52.20;;;;;;5094833;28;20217;-74
2022/03/08 09:23:59;;;;;;;29.13;27.13;;;4.90;51.80;;;;;;5095160;28;20197;-71
2022/03/08 09:26:26;;;;;;;30.00;28.00;;;5.00;51.30;;;;;;5095146;28;20197;-71
2022/03/08 09:28:53;;;;;;;31.20;29.10;;;5.20;51.10;;;;;;5095092;28;20683;-71
2022/03/08 09:31:21;;;;;;;30.90;28.90;;;5.20;51.00;;;;;;5094920;28;20222;-72
2022/03/08 09:33:48;;;;;;;30.13;27.80;;;5.30;50.50;;;;;;5095089;28;20275;-71
2022/03/08 09:36:15;;;;;;;32.40;30.30;;;5.40;50.30;;;;;;5094896;28;20595;-71
2022/03/08 09:38:42;;;;;;;29.38;27.27;;;5.50;50.10;;;;;;5094876;28;20559;-71
2022/03/08 09:41:11;;;;;;;29.25;27.13;;;5.50;50.10;;;;;;5094669;28;20240;-71
2022/03/08 09:43:38;;;;;;;29.83;27.92;;;5.60;50.00;;;;;;5095078;28;20217;-71
2022/03/08 09:46:06;;;;;;;31.63;29.73;;;5.70;49.30;;;;;;5094643;28;20205;-71
2022/03/08 09:48:35;;;;;;;30.10;28.20;;;5.60;49.30;;;;;;5094664;28;20673;-71
2022/03/08 09:51:03;;;;;;;28.35;26.48;;;5.70;49.60;;;;;;5094423;28;20200;-71
2022/03/08 09:53:31;;;;;;;31.08;29.08;;;5.90;49.30;;;;;;5094628;28;20634;-71
2022/03/08 09:55:59;;;;;;;29.80;27.60;;;5.80;48.50;;;;;;5094564;28;20198;-72
2022/03/08 09:58:26;;;;;;;29.65;27.63;;;5.80;48.50;;;;;;5094451;28;20201;-71
2022/03/08 10:00:58;;;;;;;29.38;27.58;;;5.80;48.40;;;;;;5094154;28;20209;-71
2022/03/08 10:03:35;;;;;;;31.30;29.30;;;5.50;48.10;;;;;;5094313;28;20221;-71
2022/03/08 10:06:03;;;;;;;30.23;28.23;;;5.50;48.80;;;;;;5094661;28;20197;-72
2022/03/08 10:08:30;;;;;;;30.95;28.83;;;5.70;48.20;;;;;;5094193;28;20749;-72
2022/03/08 10:10:59;;;;;;;28.67;26.85;;;6.00;47.50;;;;;;5094376;28;20600;-72
2022/03/08 10:13:29;;;;;;;30.13;28.10;;;6.20;47.10;;;;;;5093453;28;20193;-72
2022/03/08 10:16:08;;;;;;;31.08;28.95;;;6.20;46.60;;;;;;5094129;28;20240;-73
2022/03/08 10:18:37;;;;;;;29.33;27.23;;;6.20;46.40;;;;;;5094060;28;20232;-72
2022/03/08 10:21:05;;;;;;;30.52;28.73;;;6.20;46.00;;;;;;5093872;28;20562;-73
2022/03/08 10:23:42;;;;;;;29.75;27.77;;;6.40;45.90;;;;;;5094046;28;20217;-72
2022/03/08 10:26:12;;;;;;;30.02;27.85;;;6.40;45.30;;;;;;5093970;28;20208;-72
2022/03/08 10:28:49;;;;;;;29.92;27.92;;;6.30;45.80;;;;;;5093876;28;20196;-73
2022/03/08 10:31:17;;;;;;;30.70;28.58;;;6.30;46.20;;;;;;5093702;28;20228;-72
2022/03/08 10:33:47;;;;;;;28.90;26.88;;;6.30;45.30;;;;;;5093835;28;20213;-72
2022/03/08 10:36:16;;;;;;;28.40;26.60;;;6.30;45.20;;;;;;5093860;28;20199;-72
2022/03/08 10:39:09;;;;;;;28.88;27.05;;;6.30;45.10;;;;;;5093667;28;20220;-72
2022/03/08 10:41:47;;;;;;;29.75;28.05;;;6.00;45.20;;;;;;5093614;28;20308;-72
2022/03/08 10:44:14;;;;;;;28.98;27.05;;;6.00;45.80;;;;;;5093647;28;20202;-72
2022/03/08 10:46:41;;;;;;;29.83;27.67;;;6.10;45.70;;;;;;5093452;28;20751;-72
2022/03/08 10:49:14;;;;;;;29.45;27.67;;;6.10;45.50;;;;;;5093357;28;20200;-72
2022/03/08 10:51:41;;;;;;;27.77;25.98;;;6.30;44.20;;;;;;5093543;28;20223;-72
2022/03/08 10:54:15;;;;;;;29.70;27.67;;;6.40;44.00;;;;;;5093461;28;20677;-73
2022/03/08 10:56:46;;;;;;;29.67;27.63;;;6.60;43.30;;;;;;5093414;28;20208;-72
2022/03/08 10:59:15;;;;;;;30.25;28.45;;;6.70;43.10;;;;;;5093191;28;20254;-72
2022/03/08 11:01:43;;;;;;;30.23;28.15;;;6.90;43.00;;;;;;5093416;28;20313;-72
2022/03/08 11:04:20;;;;;;;29.98;28.08;;;6.80;43.10;;;;;;5093375;28;20222;-72
2022/03/08 11:06:50;;;;;;;28.38;26.58;;;6.40;43.60;;;;;;5093208;28;20234;-72
2022/03/08 11:09:18;;;;;;;28.92;27.13;;;6.40;43.20;;;;;;5093101;28;20224;-72
2022/03/08 11:11:45;;;;;;;28.55;26.83;;;6.60;43.10;;;;;;5093225;28;20620;-72
2022/03/08 11:14:12;;;;;;;29.00;26.67;;;6.90;42.80;;;;;;5093033;28;20205;-72
2022/03/08 11:16:40;;;;;;;28.75;26.48;;;7.10;41.90;;;;;;5093097;28;20210;-72
2022/03/08 11:19:07;;;;;;;27.33;25.63;;;7.20;42.00;;;;;;5093109;28;20194;-73
2022/03/08 11:21:36;;;;;;;28.48;26.75;;;7.40;40.80;;;;;;5093090;28;20224;-72
2022/03/08 11:24:05;;;;;;;27.60;25.90;;;7.40;40.80;;;;;;5092866;28;20258;-71
2022/03/08 11:26:32;;;;;;;27.83;26.13;;;7.40;41.20;;;;;;5092858;28;20251;-72
2022/03/08 11:29:01;;;;;;;28.52;26.60;;;7.40;41.20;;;;;;5092921;28;20198;-72
2022/03/08 11:31:32;;;;;;;28.15;26.05;;;7.20;41.30;;;;;;5092661;28;20218;-71
2022/03/08 11:34:06;;;;;;;29.60;27.40;;;7.30;41.60;;;;;;5092749;28;20655;-71
2022/03/08 11:36:38;;;;;;;27.23;25.63;;;7.40;40.80;;;;;;5092910;28;20243;-71
2022/03/08 11:39:24;;;;;;;27.67;25.98;;;7.60;40.10;;;;;;5092746;28;20636;-71
2022/03/08 11:41:52;;;;;;;28.08;26.38;;;7.70;40.20;;;;;;5092485;28;20262;-71
2022/03/08 11:44:30;;;;;;;29.05;26.90;;;7.90;40.10;;;;;;5092750;28;20219;-71
2022/03/08 11:47:19;;;;;;;28.80;27.00;;;7.90;39.60;;;;;;5092642;28;20285;-71
2022/03/08 11:49:51;;;;;;;28.45;26.65;;;7.90;39.20;;;;;;5092432;28;20198;-71
2022/03/08 11:52:25;;;;;;;27.20;25.60;;;7.70;39.50;;;;;;5092795;28;20303;-71
2022/03/08 11:54:57;;;;;;;28.13;26.23;;;7.70;39.60;;;;;;5092619;28;20198;-71
2022/03/08 11:57:54;;;;;;;28.65;26.65;;;7.80;39.50;;;;;;5092996;28;20250;-71
2022/03/08 12:00:23;;;;;;;29.40;27.42;;;7.80;39.60;;;;;;5092279;28;20273;-71
2022/03/08 12:02:51;;;;;;;28.80;26.80;;;8.00;39.70;;;;;;5092472;28;20310;-71
2022/03/08 12:05:57;;;;;;;28.42;26.73;;;8.30;39.30;;;;;;5092544;28;20194;-71
2022/03/08 12:08:59;;;;;;;28.98;27.10;;;8.30;39.30;;;;;;5092325;28;20663;-71
2022/03/08 12:11:45;;;;;;;29.38;27.38;;;8.50;38.80;;;;;;5092348;28;20223;-71
2022/03/08 12:14:17;;;;;;;28.30;26.48;;;8.50;38.60;;;;;;5092380;28;20209;-71
2022/03/08 12:16:47;;;;;;;29.30;27.30;;;8.70;38.00;;;;;;5092258;28;20198;-71
2022/03/08 12:19:20;;;;;;;28.90;26.92;;;8.60;38.50;;;;;;5092018;28;20199;-71
2022/03/08 12:21:54;;;;;;;28.63;26.73;;;8.70;38.50;;;;;;5092219;28;20700;-71
2022/03/08 12:24:23;;;;;;;28.65;26.70;;;8.80;38.20;;;;;;5092439;28;20221;-71
2022/03/08 12:26:59;;;;;;;28.85;27.05;;;8.90;37.80;;;;;;5092313;28;20235;-71
2022/03/08 12:29:29;;;;;;;27.38;25.77;;;9.10;37.70;;;;;;5092081;28;20201;-71
2022/03/08 12:32:27;;;;;;;29.20;27.30;;;9.10;37.50;;;;;;5092458;28;20229;-71
2022/03/08 12:34:57;;;;;;;29.23;27.33;;;9.00;37.70;;;;;;5092300;28;20290;-71
2022/03/08 12:37:26;;;;;;;28.80;27.00;;;9.00;38.00;;;;;;5094459;28;20239;-71